PWSweather.com
Personal Weather Stations
Station Observations

MakarauRodneyNZ

Lat: -36.52421, Lon: 174.47572

Elevation: 606

Station Type: Davis VP2

http://kaiparaweather.dynu.net/index.php

High Low Average
Temperature 74.5°F23.6°C 60.4°F15.8°C 63.3°F17.4°C
Dew Point 69.9°F21.1°C 59.5°F15.3°C 62.0°F16.7°C
Winds 10.4 mph 16.7 kmh Calm Calm 2.0 mph E3.2 kmh E
Wind Gusts 12.7 mph20.4 kmh -- 3.0 mph4.8 kmh
Humidity 98% 78% 96%
Pressure 30.17 in1021.7 mb 30.12 in1020.0 mb -
Precipitation 0.57 in14.5 mm - -
Hour Temp Dew Point Humidity Winds Wind Gusts Pressure Precip Precip Rate Daily Precip Total
12:00 AM 61.5°F16.4°C 60.3°F15.7°C 96% Calm Calm 4.6 mph7.4 kmh 30.14 in1020.7 mb - 0.00 in0.0 mm 0.00 in0.0 mm
12:10 AM 61.2°F16.2°C 60.1°F15.6°C 96% Calm Calm -- 30.14 in1020.7 mb - 0.00 in0.0 mm 0.00 in0.0 mm
12:20 AM 61.1°F16.2°C 59.9°F15.5°C 96% Calm Calm -- 30.14 in1020.7 mb - 0.00 in0.0 mm 0.00 in0.0 mm
12:30 AM 60.9°F16.1°C 59.8°F15.4°C 96% 2.3 mph NNE3.7 kmh NNE 3.5 mph5.6 kmh 30.14 in1020.7 mb - 0.00 in0.0 mm 0.00 in0.0 mm
12:40 AM 61.0°F16.1°C 59.9°F15.5°C 96% 4.6 mph NNE7.4 kmh NNE 4.6 mph7.4 kmh 30.14 in1020.7 mb - 0.00 in0.0 mm 0.00 in0.0 mm
12:50 AM 61.2°F16.2°C 60.1°F15.6°C 96% Calm Calm -- 30.14 in1020.7 mb - 0.00 in0.0 mm 0.00 in0.0 mm
01:00 AM 61.2°F16.2°C 60.1°F15.6°C 96% 2.3 mph NNE3.7 kmh NNE 3.5 mph5.6 kmh 30.14 in1020.7 mb - 0.00 in0.0 mm 0.00 in0.0 mm
01:10 AM 61.2°F16.2°C 60.1°F15.6°C 96% 2.3 mph NNE3.7 kmh NNE 3.5 mph5.6 kmh 30.14 in1020.7 mb - 0.00 in0.0 mm 0.00 in0.0 mm
01:20 AM 61.3°F16.3°C 60.5°F15.8°C 97% Calm Calm -- 30.14 in1020.7 mb - 0.00 in0.0 mm 0.00 in0.0 mm
01:30 AM 61.5°F16.4°C 60.6°F15.9°C 97% Calm Calm -- 30.14 in1020.7 mb - 0.00 in0.0 mm 0.00 in0.0 mm
01:40 AM 61.6°F16.4°C 60.7°F15.9°C 97% 1.2 mph N1.9 kmh N 3.5 mph5.6 kmh 30.14 in1020.7 mb - 0.00 in0.0 mm 0.00 in0.0 mm
01:50 AM 61.7°F16.5°C 60.9°F16.1°C 97% 2.3 mph NNE3.7 kmh NNE 4.6 mph7.4 kmh 30.14 in1020.7 mb - 0.00 in0.0 mm 0.00 in0.0 mm
02:00 AM 61.8°F16.6°C 60.9°F16.1°C 97% Calm Calm -- 30.14 in1020.7 mb - 0.00 in0.0 mm 0.00 in0.0 mm
02:10 AM 61.7°F16.5°C 60.8°F16.0°C 97% Calm Calm 3.5 mph5.6 kmh 30.14 in1020.7 mb - 0.00 in0.0 mm 0.00 in0.0 mm
02:20 AM 61.8°F16.6°C 60.9°F16.1°C 97% Calm Calm -- 30.13 in1020.3 mb - 0.02 in0.5 mm 0.02 in0.5 mm
02:30 AM 61.9°F16.6°C 61.0°F16.1°C 97% 1.2 mph NNE1.9 kmh NNE 3.5 mph5.6 kmh 30.13 in1020.3 mb - 0.00 in0.0 mm 0.02 in0.5 mm
02:40 AM 61.9°F16.6°C 61.0°F16.1°C 97% 2.3 mph NNE3.7 kmh NNE 3.5 mph5.6 kmh 30.13 in1020.3 mb - 0.01 in0.3 mm 0.02 in0.5 mm
02:50 AM 62.0°F16.7°C 61.1°F16.2°C 97% Calm Calm -- 30.13 in1020.3 mb - 0.02 in0.5 mm 0.04 in1.0 mm
03:00 AM 62.0°F16.7°C 61.1°F16.2°C 97% 4.6 mph NE7.4 kmh NE 8.1 mph13.0 kmh 30.13 in1020.3 mb - 0.01 in0.3 mm 0.05 in1.3 mm
03:10 AM 61.7°F16.5°C 60.8°F16.0°C 97% 3.5 mph NNE5.6 kmh NNE 4.6 mph7.4 kmh 30.12 in1020.0 mb - 0.00 in0.0 mm 0.05 in1.3 mm
03:20 AM 61.5°F16.4°C 60.7°F15.9°C 97% 3.5 mph NNE5.6 kmh NNE 3.5 mph5.6 kmh 30.12 in1020.0 mb - 0.00 in0.0 mm 0.05 in1.3 mm
03:30 AM 61.3°F16.3°C 60.4°F15.8°C 97% Calm Calm -- 30.12 in1020.0 mb - 0.00 in0.0 mm 0.05 in1.3 mm
03:40 AM 61.1°F16.2°C 60.2°F15.7°C 97% 2.3 mph NNE3.7 kmh NNE 3.5 mph5.6 kmh 30.12 in1020.0 mb - 0.00 in0.0 mm 0.05 in1.3 mm
03:50 AM 60.8°F16.0°C 60.0°F15.6°C 97% 2.3 mph NNE3.7 kmh NNE 3.5 mph5.6 kmh 30.12 in1020.0 mb - 0.00 in0.0 mm 0.05 in1.3 mm
04:00 AM 60.7°F15.9°C 59.8°F15.4°C 97% 2.3 mph NNE3.7 kmh NNE 3.5 mph5.6 kmh 30.12 in1020.0 mb - 0.00 in0.0 mm 0.05 in1.3 mm
04:10 AM 60.4°F15.8°C 59.6°F15.3°C 97% Calm Calm -- 30.12 in1020.0 mb - 0.00 in0.0 mm 0.05 in1.3 mm
04:20 AM 60.4°F15.8°C 59.5°F15.3°C 97% Calm Calm -- 30.12 in1020.0 mb - 0.00 in0.0 mm 0.05 in1.3 mm
04:30 AM 60.5°F15.8°C 59.6°F15.3°C 97% 1.2 mph N1.9 kmh N 3.5 mph5.6 kmh 30.12 in1020.0 mb - 0.00 in0.0 mm 0.05 in1.3 mm
04:40 AM 60.6°F15.9°C 59.7°F15.4°C 97% 2.3 mph NNE3.7 kmh NNE 3.5 mph5.6 kmh 30.12 in1020.0 mb - 0.00 in0.0 mm 0.05 in1.3 mm
04:50 AM 60.5°F15.8°C 59.6°F15.3°C 97% 2.3 mph NNE3.7 kmh NNE 3.5 mph5.6 kmh 30.12 in1020.0 mb - 0.00 in0.0 mm 0.05 in1.3 mm
05:00 AM 60.4°F15.8°C 59.5°F15.3°C 97% 2.3 mph NNE3.7 kmh NNE 3.5 mph5.6 kmh 30.12 in1020.0 mb - 0.00 in0.0 mm 0.05 in1.3 mm
05:10 AM 60.5°F15.8°C 59.6°F15.3°C 97% 3.5 mph NNE5.6 kmh NNE 4.6 mph7.4 kmh 30.12 in1020.0 mb - 0.00 in0.0 mm 0.05 in1.3 mm
05:20 AM 60.6°F15.9°C 59.7°F15.4°C 97% 3.5 mph NNE5.6 kmh NNE 4.6 mph7.4 kmh 30.12 in1020.0 mb - 0.00 in0.0 mm 0.05 in1.3 mm
05:30 AM 60.7°F15.9°C 59.9°F15.5°C 97% 3.5 mph NNE5.6 kmh NNE 4.6 mph7.4 kmh 30.12 in1020.0 mb - 0.00 in0.0 mm 0.05 in1.3 mm
05:40 AM 61.0°F16.1°C 60.1°F15.6°C 97% 3.5 mph NNE5.6 kmh NNE 4.6 mph7.4 kmh 30.13 in1020.3 mb - 0.00 in0.0 mm 0.05 in1.3 mm
05:50 AM 61.0°F16.1°C 60.2°F15.7°C 97% 3.5 mph NNE5.6 kmh NNE 4.6 mph7.4 kmh 30.13 in1020.3 mb - 0.00 in0.0 mm 0.05 in1.3 mm
06:00 AM 61.1°F16.2°C 60.2°F15.7°C 97% 3.5 mph NNE5.6 kmh NNE 4.6 mph7.4 kmh 30.13 in1020.3 mb - 0.00 in0.0 mm 0.05 in1.3 mm
06:10 AM 61.1°F16.2°C 60.2°F15.7°C 97% 3.5 mph NNE5.6 kmh NNE 4.6 mph7.4 kmh 30.14 in1020.7 mb - 0.00 in0.0 mm 0.05 in1.3 mm
06:20 AM 61.4°F16.3°C 60.8°F16.0°C 98% 3.5 mph NNE5.6 kmh NNE 4.6 mph7.4 kmh 30.14 in1020.7 mb - 0.00 in0.0 mm 0.05 in1.3 mm
06:30 AM 61.6°F16.4°C 61.0°F16.1°C 98% 4.6 mph NNE7.4 kmh NNE 6.9 mph11.1 kmh 30.14 in1020.7 mb - 0.00 in0.0 mm 0.05 in1.3 mm
06:40 AM 61.8°F16.6°C 61.2°F16.2°C 98% 4.6 mph NNE7.4 kmh NNE 6.9 mph11.1 kmh 30.14 in1020.7 mb - 0.00 in0.0 mm 0.05 in1.3 mm
06:50 AM 61.9°F16.6°C 61.0°F16.1°C 97% 4.6 mph NNE7.4 kmh NNE 8.1 mph13.0 kmh 30.14 in1020.7 mb - 0.00 in0.0 mm 0.05 in1.3 mm
07:00 AM 62.0°F16.7°C 61.4°F16.3°C 98% 2.3 mph NNE3.7 kmh NNE 4.6 mph7.4 kmh 30.14 in1020.7 mb - 0.00 in0.0 mm 0.05 in1.3 mm
07:10 AM 62.3°F16.8°C 61.7°F16.5°C 98% 3.5 mph NNE5.6 kmh NNE 4.6 mph7.4 kmh 30.15 in1021.0 mb - 0.00 in0.0 mm 0.05 in1.3 mm
07:20 AM 62.4°F16.9°C 61.8°F16.6°C 98% 4.6 mph NNE7.4 kmh NNE 4.6 mph7.4 kmh 30.15 in1021.0 mb - 0.00 in0.0 mm 0.05 in1.3 mm
07:30 AM 62.8°F17.1°C 62.2°F16.8°C 98% 4.6 mph NNE7.4 kmh NNE 6.9 mph11.1 kmh 30.15 in1021.0 mb - 0.00 in0.0 mm 0.05 in1.3 mm
07:40 AM 63.1°F17.3°C 62.6°F17.0°C 98% 3.5 mph NNE5.6 kmh NNE 4.6 mph7.4 kmh 30.15 in1021.0 mb - 0.00 in0.0 mm 0.05 in1.3 mm
07:50 AM 63.3°F17.4°C 62.7°F17.1°C 98% 2.3 mph NNE3.7 kmh NNE 3.5 mph5.6 kmh 30.16 in1021.3 mb - 0.00 in0.0 mm 0.05 in1.3 mm
08:00 AM 63.3°F17.4°C 62.7°F17.1°C 98% 1.2 mph NNE1.9 kmh NNE 3.5 mph5.6 kmh 30.16 in1021.3 mb - 0.01 in0.3 mm 0.06 in1.5 mm
08:10 AM 63.5°F17.5°C 62.9°F17.2°C 98% 2.3 mph NNE3.7 kmh NNE 4.6 mph7.4 kmh 30.16 in1021.3 mb - 0.00 in0.0 mm 0.06 in1.5 mm
08:20 AM 63.7°F17.6°C 63.1°F17.3°C 98% 4.6 mph NNE7.4 kmh NNE 4.6 mph7.4 kmh 30.16 in1021.3 mb - 0.00 in0.0 mm 0.06 in1.5 mm
08:30 AM 63.9°F17.7°C 63.3°F17.4°C 98% 4.6 mph NNE7.4 kmh NNE 8.1 mph13.0 kmh 30.16 in1021.3 mb - 0.00 in0.0 mm 0.06 in1.5 mm
08:40 AM 64.2°F17.9°C 63.7°F17.6°C 98% 4.6 mph NNE7.4 kmh NNE 8.1 mph13.0 kmh 30.16 in1021.3 mb - 0.00 in0.0 mm 0.06 in1.5 mm
08:50 AM 64.6°F18.1°C 64.1°F17.8°C 98% 3.5 mph NNE5.6 kmh NNE 6.9 mph11.1 kmh 30.16 in1021.3 mb - 0.00 in0.0 mm 0.06 in1.5 mm
09:00 AM 64.8°F18.2°C 64.3°F17.9°C 98% 4.6 mph NNE7.4 kmh NNE 4.6 mph7.4 kmh 30.16 in1021.3 mb - 0.00 in0.0 mm 0.06 in1.5 mm
09:10 AM 65.2°F18.4°C 64.6°F18.1°C 98% 3.5 mph NNE5.6 kmh NNE 4.6 mph7.4 kmh 30.16 in1021.3 mb - 0.00 in0.0 mm 0.06 in1.5 mm
09:20 AM 65.1°F18.4°C 64.5°F18.1°C 98% 3.5 mph NNE5.6 kmh NNE 4.6 mph7.4 kmh 30.16 in1021.3 mb - 0.00 in0.0 mm 0.06 in1.5 mm
09:30 AM 65.3°F18.5°C 64.7°F18.2°C 98% 5.8 mph NNE9.3 kmh NNE 8.1 mph13.0 kmh 30.16 in1021.3 mb - 0.00 in0.0 mm 0.06 in1.5 mm
09:40 AM 65.4°F18.6°C 64.8°F18.2°C 98% 4.6 mph NNE7.4 kmh NNE 6.9 mph11.1 kmh 30.16 in1021.3 mb - 0.00 in0.0 mm 0.06 in1.5 mm
09:50 AM 65.6°F18.7°C 65.0°F18.3°C 98% 3.5 mph NNE5.6 kmh NNE 4.6 mph7.4 kmh 30.16 in1021.3 mb - 0.00 in0.0 mm 0.06 in1.5 mm
10:00 AM 66.0°F18.9°C 65.4°F18.6°C 98% 4.6 mph NNE7.4 kmh NNE 5.8 mph9.3 kmh 30.16 in1021.3 mb - 0.00 in0.0 mm 0.06 in1.5 mm
10:10 AM 67.8°F19.9°C 67.2°F19.6°C 98% 2.3 mph NNE3.7 kmh NNE 8.1 mph13.0 kmh 30.16 in1021.3 mb - 0.00 in0.0 mm 0.06 in1.5 mm
10:20 AM 68.5°F20.3°C 67.9°F19.9°C 98% 4.6 mph NNE7.4 kmh NNE 4.6 mph7.4 kmh 30.16 in1021.3 mb - 0.00 in0.0 mm 0.06 in1.5 mm
10:30 AM 69.4°F20.8°C 68.8°F20.4°C 98% 3.5 mph NNE5.6 kmh NNE 5.8 mph9.3 kmh 30.15 in1021.0 mb - 0.00 in0.0 mm 0.06 in1.5 mm
10:40 AM 69.2°F20.7°C 68.6°F20.3°C 98% 4.6 mph NNE7.4 kmh NNE 6.9 mph11.1 kmh 30.15 in1021.0 mb - 0.00 in0.0 mm 0.06 in1.5 mm
10:50 AM 69.8°F21.0°C 69.2°F20.7°C 98% 5.8 mph NNE9.3 kmh NNE 8.1 mph13.0 kmh 30.15 in1021.0 mb - 0.00 in0.0 mm 0.06 in1.5 mm
11:00 AM 70.8°F21.6°C 69.9°F21.1°C 97% 4.6 mph NNE7.4 kmh NNE 5.8 mph9.3 kmh 30.14 in1020.7 mb - 0.00 in0.0 mm 0.06 in1.5 mm
11:10 AM 70.3°F21.3°C 67.8°F19.9°C 92% 5.8 mph NNE9.3 kmh NNE 11.5 mph18.5 kmh 30.14 in1020.7 mb - 0.00 in0.0 mm 0.06 in1.5 mm
11:20 AM 69.4°F20.8°C 66.4°F19.1°C 90% 4.6 mph NNE7.4 kmh NNE 4.6 mph7.4 kmh 30.14 in1020.7 mb - 0.00 in0.0 mm 0.06 in1.5 mm
11:30 AM 68.7°F20.4°C 65.3°F18.5°C 89% 4.6 mph NNE7.4 kmh NNE 6.9 mph11.1 kmh 30.15 in1021.0 mb - 0.00 in0.0 mm 0.06 in1.5 mm
11:40 AM 67.8°F19.9°C 64.5°F18.1°C 89% 3.5 mph NNE5.6 kmh NNE 3.5 mph5.6 kmh 30.15 in1021.0 mb - 0.00 in0.0 mm 0.06 in1.5 mm
11:50 AM 67.4°F19.7°C 64.7°F18.2°C 91% Calm Calm -- 30.15 in1021.0 mb - 0.00 in0.0 mm 0.06 in1.5 mm
12:00 PM 67.6°F19.8°C 65.5°F18.6°C 93% 2.3 mph NNE3.7 kmh NNE 3.5 mph5.6 kmh 30.15 in1021.0 mb - 0.00 in0.0 mm 0.06 in1.5 mm
12:10 PM 68.2°F20.1°C 66.1°F18.9°C 93% 5.8 mph NNE9.3 kmh NNE 9.2 mph14.8 kmh 30.15 in1021.0 mb - 0.00 in0.0 mm 0.06 in1.5 mm
12:20 PM 68.9°F20.5°C 65.9°F18.8°C 90% 3.5 mph NNE5.6 kmh NNE 4.6 mph7.4 kmh 30.15 in1021.0 mb - 0.00 in0.0 mm 0.06 in1.5 mm
12:30 PM 69.6°F20.9°C 65.9°F18.8°C 88% 3.5 mph NNE5.6 kmh NNE 4.6 mph7.4 kmh 30.14 in1020.7 mb - 0.00 in0.0 mm 0.06 in1.5 mm
12:40 PM 70.4°F21.3°C 67.4°F19.7°C 90% 3.5 mph NNE5.6 kmh NNE 8.1 mph13.0 kmh 30.14 in1020.7 mb - 0.00 in0.0 mm 0.06 in1.5 mm
12:50 PM 71.0°F21.7°C 67.0°F19.4°C 87% 4.6 mph NNE7.4 kmh NNE 9.2 mph14.8 kmh 30.13 in1020.3 mb - 0.00 in0.0 mm 0.06 in1.5 mm
01:00 PM 72.9°F22.7°C 68.1°F20.1°C 85% 1.2 mph NNE1.9 kmh NNE 4.6 mph7.4 kmh 30.12 in1020.0 mb - 0.00 in0.0 mm 0.06 in1.5 mm
01:10 PM 74.0°F23.3°C 67.8°F19.9°C 81% 5.8 mph NNE9.3 kmh NNE 12.7 mph20.4 kmh 30.12 in1020.0 mb - 0.00 in0.0 mm 0.06 in1.5 mm
01:20 PM 73.8°F23.2°C 67.3°F19.6°C 80% 2.3 mph NNE3.7 kmh NNE 8.1 mph13.0 kmh 30.13 in1020.3 mb - 0.00 in0.0 mm 0.06 in1.5 mm
01:30 PM 74.0°F23.3°C 67.4°F19.7°C 80% Calm Calm 1.2 mph1.9 kmh 30.12 in1020.0 mb - 0.00 in0.0 mm 0.06 in1.5 mm
01:40 PM 74.5°F23.6°C 67.2°F19.6°C 78% Calm Calm -- 30.13 in1020.3 mb - 0.00 in0.0 mm 0.06 in1.5 mm
01:50 PM 73.9°F23.3°C 66.6°F19.2°C 78% Calm Calm -- 30.13 in1020.3 mb - 0.00 in0.0 mm 0.06 in1.5 mm
02:00 PM 72.7°F22.6°C 65.4°F18.6°C 78% Calm Calm -- 30.13 in1020.3 mb - 0.00 in0.0 mm 0.06 in1.5 mm
02:10 PM 66.5°F19.2°C 63.2°F17.3°C 89% Calm Calm 1.2 mph1.9 kmh 30.14 in1020.7 mb - 0.00 in0.0 mm 0.06 in1.5 mm
02:20 PM 65.5°F18.6°C 63.1°F17.3°C 92% Calm Calm 5.8 mph9.3 kmh 30.14 in1020.7 mb - 0.02 in0.5 mm 0.07 in1.8 mm
02:30 PM 63.8°F17.7°C 62.0°F16.7°C 94% 5.8 mph SW9.3 kmh SW 9.2 mph14.8 kmh 30.14 in1020.7 mb - 0.03 in0.8 mm 0.10 in2.5 mm
02:40 PM 63.6°F17.6°C 62.4°F16.9°C 96% 8.1 mph SSW13.0 kmh SSW 9.2 mph14.8 kmh 30.13 in1020.3 mb - 0.05 in1.3 mm 0.15 in3.8 mm
02:50 PM 63.4°F17.4°C 62.2°F16.8°C 96% 10.4 mph SSW16.7 kmh SSW 12.7 mph20.4 kmh 30.13 in1020.3 mb - 0.13 in3.3 mm 0.27 in6.9 mm
03:00 PM 63.1°F17.3°C 61.9°F16.6°C 96% 10.4 mph SSW16.7 kmh SSW 11.5 mph18.5 kmh 30.13 in1020.3 mb - 0.01 in0.3 mm 0.28 in7.1 mm
03:10 PM 62.9°F17.2°C 61.7°F16.5°C 96% 6.9 mph SSW11.1 kmh SSW 9.2 mph14.8 kmh 30.13 in1020.3 mb - 0.01 in0.3 mm 0.28 in7.1 mm
03:20 PM 62.6°F17.0°C 61.7°F16.5°C 97% Calm Calm -- 30.14 in1020.7 mb - 0.05 in1.3 mm 0.33 in8.4 mm
03:30 PM 62.4°F16.9°C 61.5°F16.4°C 97% 3.5 mph SSW5.6 kmh SSW 4.6 mph7.4 kmh 30.14 in1020.7 mb - 0.08 in2.0 mm 0.40 in10.2 mm
03:40 PM 62.3°F16.8°C 61.2°F16.2°C 96% 5.8 mph SSW9.3 kmh SSW 8.1 mph13.0 kmh 30.14 in1020.7 mb - 0.02 in0.5 mm 0.42 in10.7 mm
03:50 PM 62.1°F16.7°C 61.2°F16.2°C 97% 6.9 mph SSW11.1 kmh SSW 8.1 mph13.0 kmh 30.13 in1020.3 mb - 0.01 in0.3 mm 0.43 in10.9 mm
04:00 PM 62.2°F16.8°C 61.4°F16.3°C 97% 5.8 mph SSW9.3 kmh SSW 8.1 mph13.0 kmh 30.14 in1020.7 mb - 0.02 in0.5 mm 0.45 in11.4 mm
04:10 PM 62.3°F16.8°C 61.4°F16.3°C 97% 1.2 mph SSW1.9 kmh SSW 3.5 mph5.6 kmh 30.14 in1020.7 mb - 0.01 in0.3 mm 0.46 in11.7 mm
04:20 PM 62.3°F16.8°C 61.5°F16.4°C 97% 4.6 mph SSW7.4 kmh SSW 6.9 mph11.1 kmh 30.14 in1020.7 mb - 0.01 in0.3 mm 0.47 in11.9 mm
04:30 PM 62.2°F16.8°C 61.3°F16.3°C 97% Calm Calm -- 30.14 in1020.7 mb - 0.02 in0.5 mm 0.48 in12.2 mm
04:40 PM 61.1°F16.2°C 60.0°F15.6°C 96% 4.6 mph S7.4 kmh S 6.9 mph11.1 kmh 30.14 in1020.7 mb - 0.00 in0.0 mm 0.48 in12.2 mm
04:50 PM 61.0°F16.1°C 60.2°F15.7°C 97% 1.2 mph S1.9 kmh S 2.3 mph3.7 kmh 30.14 in1020.7 mb - 0.01 in0.3 mm 0.49 in12.4 mm
05:00 PM 61.1°F16.2°C 60.2°F15.7°C 97% 2.3 mph S3.7 kmh S 3.5 mph5.6 kmh 30.14 in1020.7 mb - 0.02 in0.5 mm 0.51 in13.0 mm
05:10 PM 61.4°F16.3°C 60.5°F15.8°C 97% 2.3 mph S3.7 kmh S 3.5 mph5.6 kmh 30.14 in1020.7 mb - 0.02 in0.5 mm 0.53 in13.5 mm
05:20 PM 61.2°F16.2°C 60.4°F15.8°C 97% Calm Calm -- 30.14 in1020.7 mb - 0.02 in0.5 mm 0.54 in13.7 mm
05:30 PM 61.1°F16.2°C 60.3°F15.7°C 97% Calm Calm -- 30.14 in1020.7 mb - 0.02 in0.5 mm 0.55 in14.0 mm
05:40 PM 61.0°F16.1°C 60.1°F15.6°C 97% 2.3 mph S3.7 kmh S 3.5 mph5.6 kmh 30.14 in1020.7 mb - 0.01 in0.3 mm 0.55 in14.0 mm
05:50 PM 61.0°F16.1°C 60.1°F15.6°C 97% Calm Calm -- 30.14 in1020.7 mb - 0.00 in0.0 mm 0.55 in14.0 mm
06:00 PM 60.9°F16.1°C 60.0°F15.6°C 97% Calm Calm -- 30.14 in1020.7 mb - 0.00 in0.0 mm 0.55 in14.0 mm
06:10 PM 60.8°F16.0°C 59.9°F15.5°C 97% Calm Calm -- 30.14 in1020.7 mb - 0.00 in0.0 mm 0.55 in14.0 mm
06:20 PM 60.9°F16.1°C 60.1°F15.6°C 97% Calm Calm -- 30.15 in1021.0 mb - 0.00 in0.0 mm 0.55 in14.0 mm
06:30 PM 61.1°F16.2°C 60.2°F15.7°C 97% Calm Calm -- 30.15 in1021.0 mb - 0.00 in0.0 mm 0.55 in14.0 mm
06:40 PM 61.1°F16.2°C 60.2°F15.7°C 97% Calm Calm -- 30.15 in1021.0 mb - 0.00 in0.0 mm 0.55 in14.0 mm
06:50 PM 61.1°F16.2°C 60.2°F15.7°C 97% Calm Calm -- 30.15 in1021.0 mb - 0.00 in0.0 mm 0.55 in14.0 mm
07:00 PM 61.0°F16.1°C 60.4°F15.8°C 98% Calm Calm -- 30.15 in1021.0 mb - 0.00 in0.0 mm 0.55 in14.0 mm
07:10 PM 60.8°F16.0°C 60.2°F15.7°C 98% Calm Calm -- 30.15 in1021.0 mb - 0.00 in0.0 mm 0.55 in14.0 mm
07:20 PM 60.8°F16.0°C 60.2°F15.7°C 98% Calm Calm -- 30.15 in1021.0 mb - 0.00 in0.0 mm 0.55 in14.0 mm
07:30 PM 60.7°F15.9°C 60.2°F15.7°C 98% Calm Calm -- 30.15 in1021.0 mb - 0.00 in0.0 mm 0.55 in14.0 mm
07:40 PM 60.9°F16.1°C 60.3°F15.7°C 98% Calm Calm -- 30.15 in1021.0 mb - 0.00 in0.0 mm 0.55 in14.0 mm
07:50 PM 60.9°F16.1°C 60.3°F15.7°C 98% Calm Calm -- 30.16 in1021.3 mb - 0.00 in0.0 mm 0.55 in14.0 mm
08:00 PM 60.9°F16.1°C 60.3°F15.7°C 98% Calm Calm -- 30.16 in1021.3 mb - 0.02 in0.5 mm 0.57 in14.5 mm
08:10 PM 61.0°F16.1°C 60.4°F15.8°C 98% Calm Calm -- 30.16 in1021.3 mb - 0.00 in0.0 mm 0.57 in14.5 mm
08:20 PM 61.1°F16.2°C 60.5°F15.8°C 98% Calm Calm -- 30.16 in1021.3 mb - 0.00 in0.0 mm 0.57 in14.5 mm
08:30 PM 61.2°F16.2°C 60.6°F15.9°C 98% Calm Calm -- 30.16 in1021.3 mb - 0.00 in0.0 mm 0.57 in14.5 mm
08:40 PM 61.2°F16.2°C 60.6°F15.9°C 98% Calm Calm -- 30.16 in1021.3 mb - 0.00 in0.0 mm 0.57 in14.5 mm
08:50 PM 61.3°F16.3°C 60.7°F15.9°C 98% Calm Calm -- 30.16 in1021.3 mb - 0.00 in0.0 mm 0.57 in14.5 mm
09:00 PM 61.3°F16.3°C 60.7°F15.9°C 98% Calm Calm -- 30.16 in1021.3 mb - 0.00 in0.0 mm 0.57 in14.5 mm
09:10 PM 61.3°F16.3°C 60.7°F15.9°C 98% Calm Calm -- 30.17 in1021.7 mb - 0.00 in0.0 mm 0.57 in14.5 mm
09:20 PM 61.3°F16.3°C 60.7°F15.9°C 98% Calm Calm -- 30.16 in1021.3 mb - 0.00 in0.0 mm 0.57 in14.5 mm
09:30 PM 61.4°F16.3°C 60.8°F16.0°C 98% Calm Calm -- 30.17 in1021.7 mb - 0.00 in0.0 mm 0.57 in14.5 mm
09:40 PM 61.4°F16.3°C 60.8°F16.0°C 98% Calm Calm -- 30.17 in1021.7 mb - 0.00 in0.0 mm 0.57 in14.5 mm
09:50 PM 61.4°F16.3°C 60.9°F16.1°C 98% Calm Calm -- 30.16 in1021.3 mb - 0.00 in0.0 mm 0.57 in14.5 mm
10:00 PM 61.4°F16.3°C 60.8°F16.0°C 98% Calm Calm -- 30.16 in1021.3 mb - 0.00 in0.0 mm 0.57 in14.5 mm
10:10 PM 61.4°F16.3°C 60.8°F16.0°C 98% Calm Calm -- 30.16 in1021.3 mb - 0.00 in0.0 mm 0.57 in14.5 mm
10:20 PM 61.3°F16.3°C 60.7°F15.9°C 98% Calm Calm -- 30.16 in1021.3 mb - 0.00 in0.0 mm 0.57 in14.5 mm
10:30 PM 61.3°F16.3°C 60.7°F15.9°C 98% Calm Calm -- 30.16 in1021.3 mb - 0.00 in0.0 mm 0.57 in14.5 mm
10:40 PM 61.3°F16.3°C 60.7°F15.9°C 98% Calm Calm -- 30.16 in1021.3 mb - 0.00 in0.0 mm 0.57 in14.5 mm
10:50 PM 61.3°F16.3°C 60.7°F15.9°C 98% Calm Calm -- 30.16 in1021.3 mb - 0.00 in0.0 mm 0.57 in14.5 mm
11:00 PM 61.4°F16.3°C 60.8°F16.0°C 98% Calm Calm -- 30.16 in1021.3 mb - 0.00 in0.0 mm 0.66 in16.8 mm
11:10 PM 61.4°F16.3°C 60.8°F16.0°C 98% Calm Calm -- 30.16 in1021.3 mb - 0.00 in0.0 mm 0.66 in16.8 mm
11:20 PM 61.4°F16.3°C 60.8°F16.0°C 98% Calm Calm -- 30.17 in1021.7 mb - 0.00 in0.0 mm 0.66 in16.8 mm
11:30 PM 61.4°F16.3°C 60.8°F16.0°C 98% Calm Calm -- 30.17 in1021.7 mb - 0.00 in0.0 mm 0.66 in16.8 mm
11:40 PM 61.4°F16.3°C 60.8°F16.0°C 98% Calm Calm -- 30.17 in1021.7 mb - 0.00 in0.0 mm 0.66 in16.8 mm
11:50 PM 61.3°F16.3°C 60.7°F15.9°C 98% Calm Calm -- 30.17 in1021.7 mb - 0.00 in0.0 mm 0.66 in16.8 mm